Kezdőlap
METAR-TAF:

METAR-TAF

Repülőterek :

Stanton, Minnesota, Amerikai Egyesült Államok

földrajzi szélesség: 44-28-32N, földrajzi hosszúság: 093-00-59W, magasság: 280 m

Jelenlegi meteorológiai megfigyelések

A jelentés 22 perccel ezelõtt készült, 13:15 UTC
Nyugati szél 6 kt
Hőmérséklet -1°C
Páratartalom 74%
Légköri nyomás 1026 hPa
Látótávolság: 16.1 km
Borult 11000 lábon

METAR: KSYN 041315Z AUTO 28006KT 10SM OVC110 M01/M05 A3031 RMK AO2 T10101055

Idő: 07:37 (13:37 UTC)


TAF: hiányzik

Meteorológiai megfigyelések és előrejelzések több, mint 4000 repülőtéren (METAR és TAF jelentéseket).

A térképen piros és sárga pontok jelzik az elérhető meteorológiai állomásokat.

Mozgassa az egeret a pont fölött, hogy megjelenjen az állomás neve.

Azután kattintson az időjárási megfigyelések és előrejelzések megtekintéséhez.

A térkép megváltoztatása: kattintson a fekete keresztel jelölt zöld gombra ráközelítéshez, a vonallal jelölt zöld gombra távolításhoz, vagy a zöld nyilakra a szomszédos térképek eléréséhez.


METAR-TAF: